Time;durP1;ratioP1;P1;durP2;ratioP2;P2;SDS_P1;SDS_P2;PMS_P1;PMS_P2;Temp;Humidity;BMP_temperature;BMP_pressure;BME280_temperature;BME280_humidity;BME280_pressure;Samples;Min_cycle;Max_cycle;Signal;HPM_P1;HPM_P2
2022/06/05 00:00:17;;;;;;;18.63;3.45;;;;;;;;;;5031312;28;20048;-75
2022/06/05 00:02:50;;;;;;;12.90;3.40;;;;;;;;;;5020589;28;20037;-75
2022/06/05 00:05:28;;;;;;;13.50;3.58;;;;;;;;;;5031227;28;20033;-75
2022/06/05 00:08:06;;;;;;;17.73;4.70;;;;;;;;;;5016360;28;20032;-75
2022/06/05 00:10:38;;;;;;;18.80;3.15;;;;;;;;;;5031400;28;20033;-75
2022/06/05 00:13:19;;;;;;;18.80;3.60;;;;;;;;;;5031152;28;20034;-75
2022/06/05 00:15:45;;;;;;;12.95;2.55;;;;;;;;;;5024854;28;20491;-75
2022/06/05 00:18:11;;;;;;;15.30;3.88;;;;;;;;;;5027354;28;20025;-75
2022/06/05 00:20:38;;;;;;;15.25;3.67;;;;;;;;;;5031457;28;20668;-75
2022/06/05 00:23:04;;;;;;;18.42;4.53;;;;;;;;;;5030705;28;20178;-75
2022/06/05 00:25:50;;;;;;;23.45;4.90;;;;;;;;;;5019730;28;20030;-75
2022/06/05 00:28:22;;;;;;;19.92;4.82;;;;;;;;;;5007819;28;20057;-75
2022/06/05 00:30:48;;;;;;;;;;;;;;;;;;5039112;28;20057;-75
2022/06/05 00:33:18;;;;;;;18.08;4.40;;;;;;;;;;5017371;28;19960;-75
2022/06/05 00:35:56;;;;;;;17.17;4.57;;;;;;;;;;5041944;28;20025;-75
2022/06/05 00:38:31;;;;;;;18.08;5.78;;;;;;;;;;5028849;28;20030;-75
2022/06/05 00:41:03;;;;;;;20.00;5.72;;;;;;;;;;5021790;28;20136;-74
2022/06/05 00:43:29;;;;;;;19.45;5.35;;;;;;;;;;5029847;28;20408;-75
2022/06/05 00:45:56;;;;;;;20.42;5.45;;;;;;;;;;5023596;28;20471;-75
2022/06/05 00:48:22;;;;;;;16.45;5.13;;;;;;;;;;5015300;28;20034;-75
2022/06/05 00:50:49;;;;;;;15.65;4.40;;;;;;;;;;5015501;28;20145;-75
2022/06/05 00:53:15;;;;;;;17.98;3.92;;;;;;;;;;5021851;28;20555;-75
2022/06/05 00:55:42;;;;;;;13.90;3.72;;;;;;;;;;5033007;28;20029;-75
2022/06/05 00:58:08;;;;;;;18.05;3.70;;;;;;;;;;5023037;28;20065;-75
2022/06/05 01:00:36;;;;;;;13.65;3.70;;;;;;;;;;5020967;28;20530;-75
2022/06/05 01:03:04;;;;;;;13.10;3.38;;;;;;;;;;5027172;28;20035;-75
2022/06/05 01:05:30;;;;;;;17.63;3.47;;;;;;;;;;5017996;28;20057;-75
2022/06/05 01:07:57;;;;;;;16.17;4.50;;;;;;;;;;5013690;28;20038;-75
2022/06/05 01:10:25;;;;;;;20.52;4.68;;;;;;;;;;5022381;28;20029;-75
2022/06/05 01:12:54;;;;;;;20.67;4.68;;;;;;;;;;5032820;28;20037;-74
2022/06/05 01:15:29;;;;;;;16.00;4.20;;;;;;;;;;5034030;28;20061;-75
2022/06/05 01:18:04;;;;;;;18.08;4.57;;;;;;;;;;5033621;28;20101;-75
2022/06/05 01:20:39;;;;;;;18.90;4.15;;;;;;;;;;5033023;28;20036;-75
2022/06/05 01:23:17;;;;;;;19.20;4.47;;;;;;;;;;5032749;28;20037;-75
2022/06/05 01:25:53;;;;;;;11.18;4.25;;;;;;;;;;5032064;28;20747;-75
2022/06/05 01:28:24;;;;;;;20.08;4.68;;;;;;;;;;5033325;28;20044;-75
2022/06/05 01:30:55;;;;;;;15.48;4.57;;;;;;;;;;5025746;28;20364;-75
2022/06/05 01:33:26;;;;;;;22.83;4.82;;;;;;;;;;5024670;28;20038;-75
2022/06/05 01:35:55;;;;;;;17.10;4.57;;;;;;;;;;5029493;28;20034;-75
2022/06/05 01:38:29;;;;;;;22.35;5.10;;;;;;;;;;5033480;28;20319;-74
2022/06/05 01:40:56;;;;;;;16.25;4.60;;;;;;;;;;5033621;28;20051;-74
2022/06/05 01:43:29;;;;;;;16.50;4.05;;;;;;;;;;5033027;28;20037;-75
2022/06/05 01:45:59;;;;;;;21.13;4.97;;;;;;;;;;5020544;28;20025;-74
2022/06/05 01:48:30;;;;;;;20.27;4.85;;;;;;;;;;5024134;28;20054;-75
2022/06/05 01:50:58;;;;;;;16.75;4.38;;;;;;;;;;5019786;28;20056;-74
2022/06/05 01:53:26;;;;;;;21.83;4.75;;;;;;;;;;5034009;28;20033;-74
2022/06/05 01:55:56;;;;;;;14.73;5.18;;;;;;;;;;5028794;28;20846;-75
2022/06/05 01:58:25;;;;;;;15.23;4.00;;;;;;;;;;5018215;28;20380;-74
2022/06/05 02:00:53;;;;;;;16.95;5.50;;;;;;;;;;5030950;28;20033;-74
2022/06/05 02:03:25;;;;;;;22.38;4.47;;;;;;;;;;5024368;28;20040;-74
2022/06/05 02:05:57;;;;;;;20.55;4.85;;;;;;;;;;5029538;28;20032;-74
2022/06/05 02:08:29;;;;;;;16.90;3.70;;;;;;;;;;5032744;28;20045;-74
2022/06/05 02:11:04;;;;;;;15.63;4.93;;;;;;;;;;5023150;28;20026;-74
2022/06/05 02:13:30;;;;;;;15.90;3.85;;;;;;;;;;5040376;28;20039;-75
2022/06/05 02:15:56;;;;;;;16.23;4.40;;;;;;;;;;5029857;28;20034;-75
2022/06/05 02:18:23;;;;;;;13.30;3.60;;;;;;;;;;5021125;28;20034;-75
2022/06/05 02:20:49;;;;;;;19.98;4.88;;;;;;;;;;5023063;28;20030;-75
2022/06/05 02:23:17;;;;;;;17.25;4.22;;;;;;;;;;5015585;28;20491;-75
2022/06/05 02:25:43;;;;;;;21.60;5.28;;;;;;;;;;5018887;28;20025;-75
2022/06/05 02:28:13;;;;;;;14.18;3.67;;;;;;;;;;5021666;28;20044;-74
2022/06/05 02:31:02;;;;;;;15.77;4.43;;;;;;;;;;5028502;28;20029;-75
2022/06/05 02:33:43;;;;;;;15.82;4.80;;;;;;;;;;5015966;28;20053;-75
2022/06/05 02:36:16;;;;;;;13.90;4.27;;;;;;;;;;5026722;28;20056;-75
2022/06/05 02:38:49;;;;;;;21.00;4.07;;;;;;;;;;5032224;28;20030;-75
2022/06/05 02:41:34;;;;;;;11.88;3.40;;;;;;;;;;5032421;28;20030;-74
2022/06/05 02:44:29;;;;;;;17.15;5.50;;;;;;;;;;5026719;28;20038;-74
2022/06/05 02:46:55;;;;;;;13.40;4.88;;;;;;;;;;5025446;28;20043;-75
2022/06/05 02:49:44;;;;;;;21.98;8.98;;;;;;;;;;5025564;28;20049;-75
2022/06/05 02:52:10;;;;;;;24.10;8.82;;;;;;;;;;5017044;28;20104;-75
2022/06/05 02:54:41;;;;;;;23.55;7.03;;;;;;;;;;5015589;28;20046;-75
2022/06/05 02:57:07;;;;;;;20.58;6.60;;;;;;;;;;5012253;28;20108;-75
2022/06/05 02:59:33;;;;;;;16.00;5.15;;;;;;;;;;5025922;28;20142;-74
2022/06/05 03:04:44;;;;;;;13.85;5.03;;;;;;;;;;5021635;28;20499;-75
2022/06/05 03:07:10;;;;;;;17.90;4.63;;;;;;;;;;5012935;28;20030;-75
2022/06/05 03:09:36;;;;;;;15.07;3.95;;;;;;;;;;5031431;28;20095;-75
2022/06/05 03:12:02;;;;;;;13.75;4.28;;;;;;;;;;5031647;28;20395;-75
2022/06/05 03:14:28;;;;;;;14.15;4.00;;;;;;;;;;5015402;28;20041;-74
2022/06/05 03:16:54;;;;;;;17.75;4.85;;;;;;;;;;5031723;28;20036;-75
2022/06/05 03:19:20;;;;;;;15.40;4.70;;;;;;;;;;5031845;28;20030;-75
2022/06/05 03:21:46;;;;;;;13.90;4.05;;;;;;;;;;5018569;28;20038;-75
2022/06/05 03:24:14;;;;;;;21.77;4.47;;;;;;;;;;5029650;28;20163;-75
2022/06/05 03:26:40;;;;;;;15.35;3.80;;;;;;;;;;5031087;28;20040;-74
2022/06/05 03:29:07;;;;;;;16.48;4.30;;;;;;;;;;5030812;28;20059;-75
2022/06/05 03:31:34;;;;;;;15.50;5.30;;;;;;;;;;5023190;28;20045;-75
2022/06/05 03:34:00;;;;;;;17.83;4.95;;;;;;;;;;5028703;28;20044;-75
2022/06/05 03:36:26;;;;;;;14.10;4.75;;;;;;;;;;5030577;28;20414;-75
2022/06/05 03:38:52;;;;;;;13.10;4.68;;;;;;;;;;5030271;28;20108;-74
2022/06/05 03:41:18;;;;;;;18.00;4.63;;;;;;;;;;5026075;28;20038;-75
2022/06/05 03:43:44;;;;;;;16.23;5.32;;;;;;;;;;5031261;28;20391;-75
2022/06/05 03:46:11;;;;;;;13.40;4.68;;;;;;;;;;5016247;28;20452;-75
2022/06/05 03:48:38;;;;;;;15.15;4.75;;;;;;;;;;5030110;28;20041;-75
2022/06/05 03:51:08;;;;;;;17.50;4.18;;;;;;;;;;5029239;28;20037;-75
2022/06/05 03:53:34;;;;;;;15.80;4.32;;;;;;;;;;5016476;28;20040;-75
2022/06/05 03:56:00;;;;;;;16.25;5.00;;;;;;;;;;5026860;28;20034;-75
2022/06/05 03:58:26;;;;;;;13.32;3.55;;;;;;;;;;5031059;28;20477;-75
2022/06/05 04:00:53;;;;;;;14.20;3.60;;;;;;;;;;5029598;28;20030;-75
2022/06/05 04:03:19;;;;;;;18.42;4.35;;;;;;;;;;5019316;28;21003;-74
2022/06/05 04:05:45;;;;;;;17.17;4.25;;;;;;;;;;5016105;28;20053;-74
2022/06/05 04:08:14;;;;;;;17.80;4.20;;;;;;;;;;5028407;28;20724;-75
2022/06/05 04:10:40;;;;;;;11.45;3.67;;;;;;;;;;5020852;28;20117;-75
2022/06/05 04:13:07;;;;;;;16.77;3.55;;;;;;;;;;5026204;28;20483;-75
2022/06/05 04:15:37;;;;;;;12.23;3.63;;;;;;;;;;5030524;28;20037;-75
2022/06/05 04:18:03;;;;;;;16.13;4.22;;;;;;;;;;5022546;28;20124;-75
2022/06/05 04:20:29;;;;;;;17.75;3.78;;;;;;;;;;5020972;28;20072;-75
2022/06/05 04:22:55;;;;;;;10.60;3.10;;;;;;;;;;5021085;28;20045;-75
2022/06/05 04:25:21;;;;;;;10.57;3.25;;;;;;;;;;5025564;28;20025;-75
2022/06/05 04:27:48;;;;;;;11.57;3.88;;;;;;;;;;5028282;28;20034;-75
2022/06/05 04:30:14;;;;;;;15.43;4.30;;;;;;;;;;5030157;28;20483;-75
2022/06/05 04:32:40;;;;;;;12.00;3.60;;;;;;;;;;5024890;28;20033;-75
2022/06/05 04:35:06;;;;;;;14.32;4.45;;;;;;;;;;5022439;28;20079;-75
2022/06/05 04:37:33;;;;;;;13.40;3.88;;;;;;;;;;5025605;28;20022;-74
2022/06/05 04:39:59;;;;;;;16.48;3.78;;;;;;;;;;5030832;28;20041;-75
2022/06/05 04:42:25;;;;;;;14.45;3.90;;;;;;;;;;5026291;28;20026;-75
2022/06/05 04:44:51;;;;;;;13.10;3.80;;;;;;;;;;5029724;28;20048;-75
2022/06/05 04:47:17;;;;;;;23.13;4.70;;;;;;;;;;5031855;28;20029;-75
2022/06/05 04:49:43;;;;;;;16.90;4.35;;;;;;;;;;5027411;28;20049;-74
2022/06/05 04:52:09;;;;;;;17.00;4.15;;;;;;;;;;5024785;28;20041;-74
2022/06/05 04:54:35;;;;;;;14.38;4.03;;;;;;;;;;5019108;28;20057;-75
2022/06/05 04:57:01;;;;;;;14.45;4.47;;;;;;;;;;5018672;28;20025;-74
2022/06/05 04:59:27;;;;;;;11.80;4.45;;;;;;;;;;5026774;28;20460;-74
2022/06/05 05:01:53;;;;;;;17.42;4.20;;;;;;;;;;5028454;28;20033;-75
2022/06/05 05:04:19;;;;;;;13.02;4.85;;;;;;;;;;5033747;28;20116;-74
2022/06/05 05:06:45;;;;;;;17.70;4.82;;;;;;;;;;5023062;28;20072;-74
2022/06/05 05:09:12;;;;;;;16.75;5.00;;;;;;;;;;5019667;28;20045;-74
2022/06/05 05:11:38;;;;;;;15.27;4.93;;;;;;;;;;5028381;28;20113;-74
2022/06/05 05:14:04;;;;;;;14.77;4.43;;;;;;;;;;5019231;28;20037;-74
2022/06/05 05:16:31;;;;;;;15.95;4.13;;;;;;;;;;5033405;28;20072;-74
2022/06/05 05:18:57;;;;;;;14.00;3.80;;;;;;;;;;5028974;28;20044;-74
2022/06/05 05:21:24;;;;;;;13.95;4.88;;;;;;;;;;5029905;28;20026;-75
2022/06/05 05:23:51;;;;;;;16.95;5.38;;;;;;;;;;5018792;28;20532;-74
2022/06/05 05:26:18;;;;;;;20.85;4.45;;;;;;;;;;5022142;28;20030;-74
2022/06/05 05:28:45;;;;;;;18.38;4.72;;;;;;;;;;5029841;28;20081;-75
2022/06/05 05:31:12;;;;;;;16.95;4.97;;;;;;;;;;5017548;28;20033;-75
2022/06/05 05:33:39;;;;;;;16.15;4.53;;;;;;;;;;5025613;28;20493;-75
2022/06/05 05:36:06;;;;;;;13.10;3.97;;;;;;;;;;5028164;28;20036;-75
2022/06/05 05:38:32;;;;;;;15.30;4.55;;;;;;;;;;5036462;28;20116;-75
2022/06/05 05:43:43;;;;;;;15.43;4.03;;;;;;;;;;5033306;28;20053;-75
2022/06/05 05:46:13;;;;;;;8.82;3.75;;;;;;;;;;5032670;28;20787;-74
2022/06/05 05:48:39;;;;;;;17.42;4.57;;;;;;;;;;5033053;28;20057;-75
2022/06/05 05:51:15;;;;;;;17.63;5.53;;;;;;;;;;5032957;28;20025;-74
2022/06/05 05:53:42;;;;;;;13.80;4.60;;;;;;;;;;5028262;28;20041;-75
2022/06/05 05:56:12;;;;;;;19.05;4.80;;;;;;;;;;5020818;28;20104;-75
2022/06/05 05:58:39;;;;;;;14.32;4.75;;;;;;;;;;5031903;28;20072;-75
2022/06/05 06:01:06;;;;;;;13.05;4.47;;;;;;;;;;5012772;28;20044;-75
2022/06/05 06:03:32;;;;;;;18.63;4.63;;;;;;;;;;5026860;28;20038;-75
2022/06/05 06:05:59;;;;;;;21.23;6.03;;;;;;;;;;5025104;28;20093;-75
2022/06/05 06:08:26;;;;;;;16.88;6.32;;;;;;;;;;5032308;28;20045;-75
2022/06/05 06:10:52;;;;;;;20.70;5.72;;;;;;;;;;5047960;28;20017;-75
2022/06/05 06:13:18;;;;;;;15.25;5.60;;;;;;;;;;5031671;28;20048;-75
2022/06/05 06:15:44;;;;;;;17.35;5.32;;;;;;;;;;5021198;28;20068;-75
2022/06/05 06:18:10;;;;;;;18.30;5.18;;;;;;;;;;5022230;28;20038;-75
2022/06/05 06:20:36;;;;;;;18.05;4.80;;;;;;;;;;5020719;28;20038;-75
2022/06/05 06:23:02;;;;;;;14.88;4.72;;;;;;;;;;5023000;28;20033;-75
2022/06/05 06:25:28;;;;;;;15.05;4.05;;;;;;;;;;5016133;28;20025;-74
2022/06/05 06:27:54;;;;;;;16.27;4.90;;;;;;;;;;5022411;28;20037;-75
2022/06/05 06:30:20;;;;;;;17.40;4.45;;;;;;;;;;5028842;28;20068;-75
2022/06/05 06:32:46;;;;;;;18.30;5.72;;;;;;;;;;5021385;28;20133;-75
2022/06/05 06:35:12;;;;;;;19.48;5.45;;;;;;;;;;5014570;28;20136;-75
2022/06/05 06:37:38;;;;;;;16.42;4.65;;;;;;;;;;5015848;28;20851;-75
2022/06/05 06:40:05;;;;;;;13.30;4.32;;;;;;;;;;5025288;28;20041;-75
2022/06/05 06:42:31;;;;;;;17.88;4.32;;;;;;;;;;5019705;28;20030;-75
2022/06/05 06:44:57;;;;;;;15.25;3.65;;;;;;;;;;5032140;28;20049;-75
2022/06/05 06:47:23;;;;;;;20.27;4.75;;;;;;;;;;5020307;28;20439;-75
2022/06/05 06:49:49;;;;;;;17.40;3.95;;;;;;;;;;5021521;28;20087;-75
2022/06/05 06:52:15;;;;;;;11.55;3.38;;;;;;;;;;5028244;28;20033;-75
2022/06/05 06:54:42;;;;;;;17.88;4.18;;;;;;;;;;5023562;28;20419;-74
2022/06/05 06:57:08;;;;;;;15.60;3.92;;;;;;;;;;5028736;28;20025;-75
2022/06/05 06:59:34;;;;;;;17.13;4.22;;;;;;;;;;5024491;28;20380;-75
2022/06/05 07:02:00;;;;;;;21.48;5.25;;;;;;;;;;5031580;28;20030;-75
2022/06/05 07:04:27;;;;;;;18.80;4.72;;;;;;;;;;5044998;28;20029;-75
2022/06/05 07:06:53;;;;;;;18.67;4.53;;;;;;;;;;5043493;28;20037;-75
2022/06/05 07:09:19;;;;;;;10.98;3.42;;;;;;;;;;5024440;28;20037;-75
2022/06/05 07:11:45;;;;;;;15.35;3.63;;;;;;;;;;5031629;28;20037;-75
2022/06/05 07:14:12;;;;;;;15.07;3.40;;;;;;;;;;5031251;28;20041;-75
2022/06/05 07:16:38;;;;;;;11.88;3.10;;;;;;;;;;5030538;28;20037;-75
2022/06/05 07:19:05;;;;;;;14.63;3.40;;;;;;;;;;5020976;28;20025;-75
2022/06/05 07:21:31;;;;;;;17.13;3.90;;;;;;;;;;5022319;28;20058;-75
2022/06/05 07:23:58;;;;;;;17.00;3.55;;;;;;;;;;5029291;28;20044;-75
2022/06/05 07:26:26;;;;;;;17.33;4.30;;;;;;;;;;5021046;28;20430;-75
2022/06/05 07:28:53;;;;;;;13.02;3.65;;;;;;;;;;5030371;28;20378;-75
2022/06/05 07:31:20;;;;;;;15.25;3.20;;;;;;;;;;5022017;28;20033;-75
2022/06/05 07:33:46;;;;;;;10.95;2.70;;;;;;;;;;5022834;28;20081;-75
2022/06/05 07:36:14;;;;;;;14.65;3.60;;;;;;;;;;5030036;28;20423;-75
2022/06/05 07:38:41;;;;;;;11.98;2.72;;;;;;;;;;5027670;28;20051;-75
2022/06/05 07:41:14;;;;;;;9.75;2.53;;;;;;;;;;5025462;28;20083;-75
2022/06/05 07:43:40;;;;;;;10.55;2.53;;;;;;;;;;5020721;28;20035;-75
2022/06/05 07:46:06;;;;;;;16.70;2.42;;;;;;;;;;5016610;28;20033;-75
2022/06/05 07:48:33;;;;;;;11.45;2.88;;;;;;;;;;5023045;28;20053;-75
2022/06/05 07:56:36;;;;;;;11.90;2.40;;;;;;;;;;5020569;28;20084;-75
2022/06/05 07:59:03;;;;;;;12.93;2.13;;;;;;;;;;5021874;28;20034;-75
2022/06/05 08:01:29;;;;;;;11.82;2.38;;;;;;;;;;5021408;28;20026;-75
2022/06/05 08:03:55;;;;;;;10.50;2.53;;;;;;;;;;5030801;28;20059;-75
2022/06/05 08:06:21;;;;;;;9.48;2.50;;;;;;;;;;5024978;28;20455;-74
2022/06/05 08:08:47;;;;;;;9.80;2.13;;;;;;;;;;5030167;28;20080;-75
2022/06/05 08:11:13;;;;;;;11.60;2.45;;;;;;;;;;5028570;28;20034;-75
2022/06/05 08:13:39;;;;;;;11.68;2.90;;;;;;;;;;5021825;28;20036;-75
2022/06/05 08:16:05;;;;;;;13.65;2.25;;;;;;;;;;5019802;28;20033;-74
2022/06/05 08:18:31;;;;;;;10.40;2.03;;;;;;;;;;5026820;28;20522;-75
2022/06/05 08:20:57;;;;;;;8.98;1.63;;;;;;;;;;5016672;28;20061;-75
2022/06/05 08:23:23;;;;;;;7.20;1.67;;;;;;;;;;5026670;28;20033;-75
2022/06/05 08:25:50;;;;;;;7.60;1.35;;;;;;;;;;5021949;28;20697;-74
2022/06/05 08:28:16;;;;;;;6.97;1.30;;;;;;;;;;5030530;28;20037;-75
2022/06/05 08:30:42;;;;;;;7.38;0.93;;;;;;;;;;5022280;28;20459;-75
2022/06/05 08:33:09;;;;;;;4.53;0.85;;;;;;;;;;5018480;28;20040;-74
2022/06/05 08:35:36;;;;;;;5.00;0.77;;;;;;;;;;5019332;28;20026;-75
2022/06/05 08:41:30;;;;;;;6.03;0.60;;;;;;;;;;5024149;28;20111;-75
2022/06/05 08:44:07;;;;;;;2.15;0.70;;;;;;;;;;5016533;28;20033;-75
2022/06/05 08:46:42;;;;;;;3.50;0.93;;;;;;;;;;5029330;28;20052;-75
2022/06/05 08:49:14;;;;;;;3.45;0.60;;;;;;;;;;5028379;28;20041;-75
2022/06/05 08:51:44;;;;;;;5.47;0.70;;;;;;;;;;5024761;28;20072;-75
2022/06/05 08:54:13;;;;;;;3.65;0.55;;;;;;;;;;5023287;28;20033;-75
2022/06/05 08:56:41;;;;;;;3.15;0.55;;;;;;;;;;5026609;28;20095;-75
2022/06/05 08:59:16;;;;;;;3.90;0.65;;;;;;;;;;5016324;28;20041;-75
2022/06/05 09:01:51;;;;;;;2.33;0.60;;;;;;;;;;5030734;28;20061;-75
2022/06/05 09:04:17;;;;;;;6.53;0.52;;;;;;;;;;5027949;28;20037;-75
2022/06/05 09:06:48;;;;;;;3.50;0.70;;;;;;;;;;5022523;28;20112;-75
2022/06/05 09:09:23;;;;;;;2.67;0.68;;;;;;;;;;5030383;28;20037;-75
2022/06/05 09:11:49;;;;;;;6.75;0.80;;;;;;;;;;5025217;28;20034;-75
2022/06/05 09:14:21;;;;;;;6.53;0.82;;;;;;;;;;5021236;28;20038;-75
2022/06/05 09:16:53;;;;;;;4.07;0.90;;;;;;;;;;5029199;28;20041;-75
2022/06/05 09:19:22;;;;;;;5.53;1.05;;;;;;;;;;5027176;28;20052;-75
2022/06/05 09:21:56;;;;;;;3.05;0.70;;;;;;;;;;5024204;28;20017;-75
2022/06/05 09:24:32;;;;;;;2.65;0.80;;;;;;;;;;5023640;28;20705;-75
2022/06/05 09:27:02;;;;;;;3.65;0.75;;;;;;;;;;5024959;28;20041;-75
2022/06/05 09:29:28;;;;;;;6.20;0.90;;;;;;;;;;5033127;28;20619;-75
2022/06/05 09:31:54;;;;;;;5.38;1.30;;;;;;;;;;5032275;28;20037;-75
2022/06/05 09:34:23;;;;;;;3.05;0.80;;;;;;;;;;5032473;28;20072;-75
2022/06/05 09:37:02;;;;;;;8.85;1.23;;;;;;;;;;5034163;28;20443;-75
2022/06/05 09:39:35;;;;;;;9.60;1.13;;;;;;;;;;5026301;28;20048;-75
2022/06/05 09:42:01;;;;;;;8.05;1.20;;;;;;;;;;5027278;28;20521;-75
2022/06/05 09:44:26;;;;;;;4.68;0.93;;;;;;;;;;5033578;28;20049;-75
2022/06/05 09:47:00;;;;;;;8.48;1.20;;;;;;;;;;5030664;28;20041;-75
2022/06/05 09:49:38;;;;;;;9.13;1.17;;;;;;;;;;5030926;28;20133;-75
2022/06/05 09:52:12;;;;;;;9.60;1.17;;;;;;;;;;5022204;28;20112;-75
2022/06/05 09:54:40;;;;;;;16.27;2.20;;;;;;;;;;5026925;28;20048;-75
2022/06/05 10:00:15;;;;;;;16.50;2.47;;;;;;;;;;5028327;28;20041;-75
2022/06/05 10:02:42;;;;;;;10.82;1.88;;;;;;;;;;5024751;28;20104;-75
2022/06/05 10:05:35;;;;;;;17.65;1.98;;;;;;;;;;5028076;28;20361;-74
2022/06/05 10:08:02;;;;;;;;;;;;;;;;;;5023240;28;20510;-74
2022/06/05 10:10:34;;;;;;;15.68;2.28;;;;;;;;;;5025983;28;19913;-74
2022/06/05 10:13:10;;;;;;;8.55;1.95;;;;;;;;;;5023344;28;20021;-74
2022/06/05 10:15:46;;;;;;;9.45;1.40;;;;;;;;;;5017903;28;20045;-75
2022/06/05 10:18:16;;;;;;;9.15;1.75;;;;;;;;;;5017942;28;20056;-74
2022/06/05 10:20:42;;;;;;;7.47;1.40;;;;;;;;;;5030344;28;20021;-75
2022/06/05 10:23:08;;;;;;;8.55;1.95;;;;;;;;;;5026406;28;20643;-74
2022/06/05 10:25:50;;;;;;;8.50;1.08;;;;;;;;;;5013882;28;20037;-74
2022/06/05 10:28:18;;;;;;;8.57;1.30;;;;;;;;;;5026525;28;20037;-75
2022/06/05 10:30:56;;;;;;;9.68;1.40;;;;;;;;;;5026924;28;20029;-74
2022/06/05 10:33:30;;;;;;;11.98;3.28;;;;;;;;;;5030635;28;20087;-74
2022/06/05 10:36:02;;;;;;;11.45;2.88;;;;;;;;;;5030293;28;20025;-74
2022/06/05 10:38:28;;;;;;;;;;;;;;;;;;5025307;28;20074;-74
2022/06/05 10:40:55;;;;;;;9.85;1.90;;;;;;;;;;5030225;28;19936;-74
2022/06/05 10:43:32;;;;;;;6.20;1.13;;;;;;;;;;5030051;28;20716;-74
2022/06/05 10:46:00;;;;;;;9.85;1.00;;;;;;;;;;5026764;28;20758;-74
2022/06/05 10:48:26;;;;;;;5.00;0.68;;;;;;;;;;5021587;28;20112;-74
2022/06/05 10:50:58;;;;;;;4.82;0.80;;;;;;;;;;5015074;28;20100;-75
2022/06/05 10:53:34;;;;;;;5.28;1.17;;;;;;;;;;5022057;28;20041;-75
2022/06/05 10:56:11;;;;;;;6.15;1.10;;;;;;;;;;5026647;28;20029;-74
2022/06/05 10:58:51;;;;;;;5.25;1.10;;;;;;;;;;5023180;28;20460;-75
2022/06/05 11:01:41;;;;;;;8.45;1.63;;;;;;;;;;5021653;28;20032;-74
2022/06/05 11:04:23;;;;;;;10.00;2.00;;;;;;;;;;5020447;28;20061;-75
2022/06/05 11:06:54;;;;;;;6.63;1.30;;;;;;;;;;5018209;28;20486;-75
2022/06/05 11:09:29;;;;;;;10.30;1.77;;;;;;;;;;5014026;28;20030;-74
2022/06/05 11:15:24;;;;;;;13.95;1.90;;;;;;;;;;5032700;28;20051;-74
2022/06/05 11:17:53;;;;;;;7.37;1.50;;;;;;;;;;5027065;28;20018;-75
2022/06/05 11:20:23;;;;;;;7.38;1.40;;;;;;;;;;5019987;28;20068;-75
2022/06/05 11:23:01;;;;;;;9.60;1.27;;;;;;;;;;5032266;28;20040;-74
2022/06/05 11:25:29;;;;;;;7.32;1.10;;;;;;;;;;5024776;28;20129;-74
2022/06/05 11:28:02;;;;;;;4.88;1.20;;;;;;;;;;5030060;28;20037;-74
2022/06/05 11:30:47;;;;;;;5.85;2.20;;;;;;;;;;5026545;28;20124;-75
2022/06/05 11:33:27;;;;;;;7.97;1.20;;;;;;;;;;5020330;28;20044;-74
2022/06/05 11:35:53;;;;;;;6.78;1.30;;;;;;;;;;5027528;28;20059;-74
2022/06/05 11:38:22;;;;;;;16.13;1.30;;;;;;;;;;5016925;28;20770;-75
2022/06/05 11:40:55;;;;;;;7.38;1.30;;;;;;;;;;5019044;28;20041;-74
2022/06/05 11:43:21;;;;;;;;;;;;;;;;;;5024571;28;20032;-74
2022/06/05 11:45:52;;;;;;;10.40;1.52;;;;;;;;;;5018774;28;21658;-75
2022/06/05 11:48:41;;;;;;;10.95;1.42;;;;;;;;;;5020973;28;20030;-75
2022/06/05 11:51:10;;;;;;;6.18;1.25;;;;;;;;;;5014527;28;20068;-75
2022/06/05 11:53:43;;;;;;;8.35;1.58;;;;;;;;;;5017678;28;20095;-75
2022/06/05 11:56:12;;;;;;;4.30;1.00;;;;;;;;;;5015576;28;20168;-75
2022/06/05 11:58:57;;;;;;;8.30;1.60;;;;;;;;;;5018145;28;20420;-75
2022/06/05 12:01:29;;;;;;;6.97;1.50;;;;;;;;;;5022213;28;20034;-75
2022/06/05 12:04:27;;;;;;;7.68;1.52;;;;;;;;;;5034435;28;20026;-75
2022/06/05 12:06:56;;;;;;;7.28;1.50;;;;;;;;;;5013316;28;20374;-75
2022/06/05 12:09:25;;;;;;;4.90;1.27;;;;;;;;;;5025152;28;20743;-75
2022/06/05 12:11:59;;;;;;;8.60;1.40;;;;;;;;;;5017922;28;20022;-75
2022/06/05 12:14:31;;;;;;;5.50;1.27;;;;;;;;;;5021574;28;20040;-75
2022/06/05 12:17:05;;;;;;;5.28;1.38;;;;;;;;;;5021954;28;20030;-75
2022/06/05 12:19:41;;;;;;;6.97;1.40;;;;;;;;;;5023621;28;20087;-75
2022/06/05 12:22:25;;;;;;;8.15;1.50;;;;;;;;;;5020161;28;20034;-75
2022/06/05 12:24:56;;;;;;;5.78;1.60;;;;;;;;;;5029974;28;20041;-75
2022/06/05 12:27:22;;;;;;;4.88;1.13;;;;;;;;;;5026724;28;20037;-76
2022/06/05 12:29:58;;;;;;;6.93;1.30;;;;;;;;;;5027205;28;20033;-75
2022/06/05 12:32:28;;;;;;;4.68;1.10;;;;;;;;;;5022763;28;20071;-75
2022/06/05 12:35:02;;;;;;;12.13;1.58;;;;;;;;;;5026340;28;20443;-75
2022/06/05 12:37:37;;;;;;;7.70;1.23;;;;;;;;;;5017890;28;20029;-76
2022/06/05 12:40:04;;;;;;;9.15;1.42;;;;;;;;;;5028253;28;20030;-75
2022/06/05 12:42:37;;;;;;;5.93;1.00;;;;;;;;;;5020159;28;20114;-75
2022/06/05 12:45:06;;;;;;;7.32;1.40;;;;;;;;;;5026831;28;20459;-75
2022/06/05 12:47:32;;;;;;;11.15;1.83;;;;;;;;;;5030717;28;20033;-75
2022/06/05 12:50:13;;;;;;;7.10;1.60;;;;;;;;;;5026910;28;20115;-75
2022/06/05 12:52:39;;;;;;;7.03;1.58;;;;;;;;;;5022317;28;20038;-75
2022/06/05 12:55:05;;;;;;;6.90;1.80;;;;;;;;;;5036786;28;20068;-75
2022/06/05 12:57:34;;;;;;;7.32;1.70;;;;;;;;;;5030462;28;20053;-75
2022/06/05 13:00:07;;;;;;;7.20;1.60;;;;;;;;;;5019343;28;20387;-75
2022/06/05 13:02:39;;;;;;;6.65;1.42;;;;;;;;;;5026845;28;20041;-75
2022/06/05 13:05:26;;;;;;;4.50;1.30;;;;;;;;;;5034702;28;20055;-75
2022/06/05 13:07:52;;;;;;;6.22;1.58;;;;;;;;;;5031741;28;20029;-75
2022/06/05 13:10:35;;;;;;;7.97;1.30;;;;;;;;;;5032296;28;20044;-75
2022/06/05 13:13:05;;;;;;;4.57;1.27;;;;;;;;;;5034819;28;20029;-75
2022/06/05 13:15:34;;;;;;;6.70;1.33;;;;;;;;;;5024894;28;20034;-75
2022/06/05 13:18:13;;;;;;;6.28;1.38;;;;;;;;;;5034175;28;20026;-75
2022/06/05 13:20:40;;;;;;;7.75;1.30;;;;;;;;;;5025260;28;20068;-75
2022/06/05 13:23:21;;;;;;;6.82;1.08;;;;;;;;;;5034263;28;20100;-75
2022/06/05 13:26:07;;;;;;;6.32;1.27;;;;;;;;;;5032199;28;20054;-75
2022/06/05 13:29:03;;;;;;;2.75;0.80;;;;;;;;;;5043093;28;20029;-75
2022/06/05 13:31:41;;;;;;;3.45;0.88;;;;;;;;;;5012285;28;20054;-75
2022/06/05 13:34:22;;;;;;;5.18;1.00;;;;;;;;;;5032224;28;20033;-75
2022/06/05 13:36:48;;;;;;;3.90;0.93;;;;;;;;;;5033606;28;20061;-75
2022/06/05 13:39:33;;;;;;;6.07;0.80;;;;;;;;;;5032782;28;20064;-75
2022/06/05 13:42:19;;;;;;;3.70;0.85;;;;;;;;;;5027561;28;20383;-75
2022/06/05 13:44:51;;;;;;;4.75;1.30;;;;;;;;;;5023893;28;20036;-75
2022/06/05 13:47:42;;;;;;;7.75;1.20;;;;;;;;;;5026234;28;20457;-75
2022/06/05 13:50:11;;;;;;;7.90;1.48;;;;;;;;;;5020392;28;20046;-75
2022/06/05 13:52:46;;;;;;;4.60;0.88;;;;;;;;;;5029284;28;20474;-75
2022/06/05 13:55:21;;;;;;;6.13;1.23;;;;;;;;;;5030321;28;20087;-75
2022/06/05 13:58:05;;;;;;;5.40;1.10;;;;;;;;;;5028424;28;20033;-75
2022/06/05 14:00:50;;;;;;;5.55;1.63;;;;;;;;;;5031332;28;20061;-75
2022/06/05 14:03:18;;;;;;;5.13;1.42;;;;;;;;;;5028609;28;20026;-75
2022/06/05 14:05:52;;;;;;;4.55;1.15;;;;;;;;;;5026786;28;20041;-75
2022/06/05 14:08:29;;;;;;;4.82;1.10;;;;;;;;;;5031075;28;20033;-75
2022/06/05 14:10:56;;;;;;;3.75;1.00;;;;;;;;;;5027029;28;20383;-75
2022/06/05 14:13:23;;;;;;;3.85;1.20;;;;;;;;;;5026725;28;20128;-75
2022/06/05 14:15:52;;;;;;;5.57;1.10;;;;;;;;;;5029474;28;20467;-75
2022/06/05 14:18:21;;;;;;;8.98;1.60;;;;;;;;;;5023258;28;20035;-75
2022/06/05 14:20:49;;;;;;;5.15;1.13;;;;;;;;;;5019533;28;20042;-75
2022/06/05 14:23:20;;;;;;;5.75;1.15;;;;;;;;;;5040007;28;20375;-75
2022/06/05 14:25:47;;;;;;;5.50;1.10;;;;;;;;;;5033223;28;20119;-75
2022/06/05 14:28:14;;;;;;;3.53;1.25;;;;;;;;;;5028503;28;20371;-75
2022/06/05 14:30:57;;;;;;;5.20;1.13;;;;;;;;;;5020155;28;20096;-75
2022/06/05 14:33:31;;;;;;;4.03;1.13;;;;;;;;;;5022891;28;20598;-75
2022/06/05 14:35:57;;;;;;;5.30;1.45;;;;;;;;;;5032667;28;20038;-75
2022/06/05 14:38:39;;;;;;;6.10;1.52;;;;;;;;;;5029267;28;20029;-75
2022/06/05 14:41:15;;;;;;;5.75;1.83;;;;;;;;;;5029770;28;20518;-75
2022/06/05 14:43:44;;;;;;;5.47;1.52;;;;;;;;;;5023160;28;20018;-75
2022/06/05 14:46:19;;;;;;;5.07;1.00;;;;;;;;;;5025929;28;20483;-75
2022/06/05 14:48:58;;;;;;;6.00;1.00;;;;;;;;;;5023058;28;20033;-75
2022/06/05 14:51:24;;;;;;;3.15;0.80;;;;;;;;;;5030507;28;20519;-75
2022/06/05 14:53:53;;;;;;;2.63;0.70;;;;;;;;;;5033291;28;20026;-75
2022/06/05 14:59:26;;;;;;;4.88;1.10;;;;;;;;;;5016985;28;20045;-75
2022/06/05 15:01:56;;;;;;;4.05;0.82;;;;;;;;;;5019840;28;20060;-75
2022/06/05 15:04:40;;;;;;;3.65;0.75;;;;;;;;;;5022615;28;20033;-75
2022/06/05 15:07:25;;;;;;;2.63;0.63;;;;;;;;;;5025132;28;22034;-75
2022/06/05 15:09:54;;;;;;;3.25;0.50;;;;;;;;;;5029855;28;20679;-75
2022/06/05 15:12:23;;;;;;;5.78;0.50;;;;;;;;;;5019727;28;20046;-75
2022/06/05 15:14:52;;;;;;;3.53;0.63;;;;;;;;;;5030330;28;20475;-75
2022/06/05 15:17:24;;;;;;;2.25;0.40;;;;;;;;;;5024120;28;20039;-75